Time;durP1;ratioP1;P1;durP2;ratioP2;P2;SDS_P1;SDS_P2;PMS_P1;PMS_P2;Temp;Humidity;BMP_temperature;BMP_pressure;BME280_temperature;BME280_humidity;BME280_pressure;Samples;Min_cycle;Max_cycle;Signal;HPM_P1;HPM_P2
2021/05/02 00:01:17;;;;;;;26.87;19.27;;;;;;;15.99;64.72;100224.02;1689340;84;21168;-63
2021/05/02 00:03:45;;;;;;;26.25;19.12;;;;;;;15.99;64.81;100221.80;1725859;83;21363;-50
2021/05/02 00:06:13;;;;;;;28.00;19.80;;;;;;;16.00;64.83;100221.77;1700196;83;21151;-63
2021/05/02 00:08:43;;;;;;;23.67;18.12;;;;;;;16.03;64.88;100225.63;1682119;83;21183;-63
2021/05/02 00:11:11;;;;;;;25.00;18.55;;;;;;;15.97;65.09;100223.20;1725583;83;21328;-63
2021/05/02 00:13:40;;;;;;;22.37;18.50;;;;;;;16.02;64.97;100225.67;1702061;84;21629;-63
2021/05/02 00:16:08;;;;;;;25.15;17.65;;;;;;;16.02;65.04;100232.31;1710761;83;21145;-63
2021/05/02 00:18:37;;;;;;;27.10;20.15;;;;;;;16.03;65.07;100240.23;1701583;84;21155;-58
2021/05/02 00:21:10;;;;;;;23.02;18.42;;;;;;;16.01;65.17;100237.21;1707231;83;21625;-58
2021/05/02 00:23:40;;;;;;;28.17;18.95;;;;;;;16.00;65.23;100233.70;1715898;83;21163;-51
2021/05/02 00:26:09;;;;;;;24.65;18.82;;;;;;;15.98;65.37;100236.87;1696989;84;21166;-63
2021/05/02 00:28:41;;;;;;;27.45;19.80;;;;;;;16.01;65.43;100243.84;1702386;84;21183;-63
2021/05/02 00:31:09;;;;;;;23.75;19.48;;;;;;;16.01;65.39;100240.75;1737471;82;21285;-63
2021/05/02 00:33:37;;;;;;;25.15;19.50;;;;;;;16.11;65.35;100248.38;1737458;82;21167;-60
2021/05/02 00:36:06;;;;;;;24.15;19.12;;;;;;;16.13;65.36;100251.36;1726595;82;21596;-51
2021/05/02 00:38:37;;;;;;;24.30;19.25;;;;;;;16.16;65.34;100244.61;1725490;82;21665;-63
2021/05/02 00:41:09;;;;;;;25.97;19.90;;;;;;;16.20;65.42;100249.33;1725799;82;21607;-63
2021/05/02 00:44:04;;;;;;;23.67;18.00;;;;;;;16.25;65.40;100247.85;1727965;82;21467;-50
2021/05/02 00:46:44;;;;;;;26.12;18.60;;;;;;;16.29;65.37;100245.48;1740466;81;21244;-51
2021/05/02 00:49:18;;;;;;;21.93;17.00;;;;;;;16.38;65.31;100248.23;1756466;81;21123;-62
2021/05/02 00:51:47;;;;;;;24.95;17.65;;;;;;;16.39;65.39;100237.54;1726216;82;21167;-62
2021/05/02 00:54:18;;;;;;;28.17;18.17;;;;;;;16.37;65.51;100226.11;1728148;82;21709;-63
2021/05/02 00:57:06;;;;;;;22.48;18.00;;;;;;;16.35;65.62;100219.98;1725576;82;21204;-49
2021/05/02 01:00:02;;;;;;;24.07;17.12;;;;;;;16.41;65.55;100222.41;1724554;83;21289;-62
2021/05/02 01:02:30;;;;;;;24.50;18.45;;;;;;;16.41;65.66;100213.11;1726484;82;21150;-63
2021/05/02 01:04:58;;;;;;;23.15;18.40;;;;;;;16.42;65.87;100226.80;1698361;81;21166;-50
2021/05/02 01:07:29;;;;;;;25.30;19.20;;;;;;;16.41;65.98;100221.08;1758362;81;21291;-51
2021/05/02 01:09:59;;;;;;;26.95;18.87;;;;;;;16.41;66.25;100234.36;1756058;81;21173;-51
2021/05/02 01:12:27;;;;;;;24.12;19.52;;;;;;;16.40;66.33;100229.12;1754183;82;21546;-63
2021/05/02 01:14:55;;;;;;;22.30;19.35;;;;;;;16.41;66.43;100222.89;1729790;81;21566;-51
2021/05/02 01:17:23;;;;;;;26.95;18.67;;;;;;;16.43;66.51;100230.34;1728217;82;21534;-63
2021/05/02 01:19:51;;;;;;;26.97;20.35;;;;;;;16.46;66.45;100214.28;1713518;82;21131;-55
2021/05/02 01:22:20;;;;;;;24.57;19.32;;;;;;;16.44;66.68;100216.98;1756627;81;22262;-51
2021/05/02 01:24:51;;;;;;;31.17;19.27;;;;;;;16.43;66.75;100205.95;1754156;81;21158;-63
2021/05/02 01:27:27;;;;;;;25.72;20.72;;;;;;;16.45;66.83;100208.08;1756525;81;21170;-52
2021/05/02 01:30:01;;;;;;;31.75;20.25;;;;;;;16.50;66.89;100198.14;1828074;77;22187;-50
2021/05/02 01:32:29;;;;;;;33.15;21.70;;;;;;;16.49;66.90;100196.89;1761321;81;21131;-51
2021/05/02 01:35:00;;;;;;;26.68;20.60;;;;;;;16.50;66.81;100182.69;1761871;80;21139;-52
2021/05/02 01:37:28;;;;;;;28.73;20.97;;;;;;;16.53;66.91;100172.38;1762191;81;21123;-63
2021/05/02 01:39:56;;;;;;;27.52;20.15;;;;;;;16.54;66.84;100175.00;1761777;80;21578;-52
2021/05/02 01:42:23;;;;;;;29.77;21.12;;;;;;;16.56;66.73;100172.27;1761187;81;21126;-63
2021/05/02 01:44:51;;;;;;;30.27;20.55;;;;;;;16.60;66.63;100173.88;1761930;80;21131;-54
2021/05/02 01:47:20;;;;;;;26.62;20.95;;;;;;;16.61;66.56;100171.14;1762168;81;21166;-63
2021/05/02 01:49:57;;;;;;;27.40;19.23;;;;;;;16.54;66.80;100160.83;1760778;80;21162;-63
2021/05/02 01:52:25;;;;;;;28.77;21.82;;;;;;;16.57;66.67;100158.05;1739762;81;21139;-64
2021/05/02 01:54:55;;;;;;;22.35;18.32;;;;;;;16.50;66.79;100154.80;1762024;81;21611;-53
2021/05/02 01:57:32;;;;;;;26.68;19.67;;;;;;;16.48;66.81;100133.59;1761942;81;21159;-63
2021/05/02 02:00:09;;;;;;;27.10;19.82;;;;;;;16.43;66.98;100119.63;1761045;80;21550;-63
2021/05/02 02:02:37;;;;;;;25.48;18.50;;;;;;;16.39;67.15;100129.97;1762032;81;21146;-63
2021/05/02 02:05:07;;;;;;;25.70;19.10;;;;;;;16.39;67.09;100125.14;1761735;81;21290;-59
2021/05/02 02:07:34;;;;;;;25.12;18.87;;;;;;;16.39;67.13;100115.84;1762071;81;21289;-64
2021/05/02 02:10:03;;;;;;;29.05;18.98;;;;;;;16.38;67.16;100118.94;1761507;80;21531;-64
2021/05/02 02:12:32;;;;;;;26.25;17.92;;;;;;;16.35;67.17;100105.34;1762003;81;21134;-52
2021/05/02 02:15:00;;;;;;;27.07;18.25;;;;;;;16.34;67.24;100100.08;1761968;81;21150;-64
2021/05/02 02:17:28;;;;;;;23.18;19.55;;;;;;;16.32;67.28;100086.02;1761128;81;21130;-64
2021/05/02 02:19:56;;;;;;;29.35;21.07;;;;;;;16.34;67.16;100096.09;1762213;80;21174;-53
2021/05/02 02:22:24;;;;;;;29.87;19.80;;;;;;;16.33;67.14;100094.39;1761909;81;21977;-63
2021/05/02 02:24:58;;;;;;;28.77;20.40;;;;;;;16.31;67.18;100103.73;1761742;80;21168;-52
2021/05/02 02:27:28;;;;;;;28.42;19.77;;;;;;;16.26;67.31;100100.40;1761239;81;21110;-53
2021/05/02 02:30:00;;;;;;;25.68;18.87;;;;;;;16.26;67.32;100096.89;1750756;81;21539;-64
2021/05/02 02:32:28;;;;;;;21.02;18.23;;;;;;;16.22;67.42;100096.61;1748674;82;21281;-53
2021/05/02 02:34:58;;;;;;;23.95;19.82;;;;;;;16.22;67.35;100100.11;1748841;81;21571;-64
2021/05/02 02:37:27;;;;;;;25.10;18.77;;;;;;;16.29;67.09;100098.09;1685722;84;21574;-51
2021/05/02 02:40:00;;;;;;;25.60;18.92;;;;;;;16.29;67.04;100087.00;1748864;81;21128;-51
2021/05/02 02:42:28;;;;;;;27.10;18.82;;;;;;;16.24;67.18;100086.80;1748287;82;21580;-63
2021/05/02 02:45:06;;;;;;;24.90;17.90;;;;;;;16.29;66.90;100092.78;1747216;81;21132;-52
2021/05/02 02:47:37;;;;;;;26.90;19.57;;;;;;;16.29;66.99;100090.12;1748381;82;21119;-64
2021/05/02 02:50:08;;;;;;;25.10;18.85;;;;;;;16.32;66.83;100094.84;1748489;82;21148;-64
2021/05/02 02:52:52;;;;;;;28.10;18.70;;;;;;;16.43;66.54;100097.53;1748177;81;21163;-64
2021/05/02 02:55:24;;;;;;;24.80;17.87;;;;;;;16.42;66.53;100101.11;1741637;81;21143;-51
2021/05/02 02:57:57;;;;;;;23.05;18.70;;;;;;;16.42;66.53;100100.63;1748470;81;21131;-51
2021/05/02 03:00:32;;;;;;;25.35;18.80;;;;;;;16.45;66.42;100095.19;1748430;81;21624;-63
2021/05/02 03:03:09;;;;;;;28.12;19.05;;;;;;;16.50;66.31;100091.03;1747448;81;21706;-63
2021/05/02 03:05:37;;;;;;;24.43;18.10;;;;;;;16.49;66.26;100091.97;1748341;82;21170;-63
2021/05/02 03:08:07;;;;;;;22.35;17.57;;;;;;;16.51;66.17;100094.09;1748319;81;21167;-63
2021/05/02 03:10:37;;;;;;;29.30;19.75;;;;;;;16.52;66.07;100099.81;1748502;81;21178;-63
2021/05/02 03:13:06;;;;;;;25.08;17.73;;;;;;;16.58;66.00;100102.66;1747239;82;21154;-52
2021/05/02 03:15:35;;;;;;;26.85;17.37;;;;;;;16.56;66.02;100115.14;1748075;81;21124;-52
2021/05/02 03:18:56;;;;;;;26.48;17.27;;;;;;;16.56;66.03;100125.77;1748056;81;21107;-52
2021/05/02 03:21:29;;;;;;;24.20;15.83;;;;;;;16.57;66.02;100122.19;1720893;81;21171;-63
2021/05/02 03:23:57;;;;;;;24.72;16.37;;;;;;;16.58;65.99;100126.09;1748100;82;21171;-52
2021/05/02 03:26:25;;;;;;;21.68;15.43;;;;;;;16.52;66.22;100136.13;1727274;82;21593;-51
2021/05/02 03:28:57;;;;;;;27.20;15.50;;;;;;;16.58;66.01;100141.19;1696387;82;21289;-63
2021/05/02 03:31:34;;;;;;;19.87;13.68;;;;;;;16.62;65.95;100136.15;1755577;82;21157;-63
2021/05/02 03:34:05;;;;;;;20.75;13.13;;;;;;;16.63;65.89;100126.77;1755992;81;21562;-63
2021/05/02 03:36:49;;;;;;;19.55;12.70;;;;;;;16.68;65.78;100119.95;1756083;80;21313;-53
2021/05/02 03:39:16;;;;;;;26.45;13.45;;;;;;;16.71;65.71;100104.33;1759604;81;21281;-63
2021/05/02 03:41:44;;;;;;;21.02;12.70;;;;;;;16.74;65.67;100101.09;1756354;80;21174;-53
2021/05/02 03:44:12;;;;;;;20.17;10.68;;;;;;;16.75;65.62;100095.30;1756188;82;21499;-63
2021/05/02 03:46:40;;;;;;;19.62;11.85;;;;;;;16.72;65.68;100091.00;1756083;80;21185;-63
2021/05/02 03:49:08;;;;;;;20.95;11.57;;;;;;;16.77;65.55;100096.98;1755668;82;21139;-59
2021/05/02 03:51:39;;;;;;;18.20;12.23;;;;;;;16.79;65.53;100084.47;1756219;80;21176;-52
2021/05/02 03:54:07;;;;;;;;;;;;;;;16.81;65.43;100087.08;1758770;82;21152;-52
2021/05/02 03:56:45;;;;;;;14.40;9.85;;;;;;;16.85;65.33;100078.05;1756166;80;20251;-52
2021/05/02 03:59:19;;;;;;;19.52;11.97;;;;;;;16.86;65.27;100079.77;1755602;82;21582;-53
2021/05/02 04:01:58;;;;;;;17.85;10.25;;;;;;;16.87;65.25;100064.22;1756096;80;21144;-51
2021/05/02 04:04:29;;;;;;;14.68;10.63;;;;;;;16.85;65.25;100050.13;1755997;82;21166;-53
2021/05/02 04:07:10;;;;;;;16.70;10.45;;;;;;;16.84;65.31;100032.91;1755676;82;21106;-64
2021/05/02 04:09:41;;;;;;;16.62;10.72;;;;;;;16.90;65.06;100026.87;1755990;82;21195;-52
2021/05/02 04:12:10;;;;;;;15.23;9.53;;;;;;;16.95;64.78;100026.20;1756245;82;21277;-64
2021/05/02 04:14:38;;;;;;;19.17;10.95;;;;;;;17.07;64.62;100027.48;1755933;82;21151;-64
2021/05/02 04:17:11;;;;;;;16.97;10.58;;;;;;;17.11;64.38;100022.88;1755847;81;21115;-53
2021/05/02 04:19:44;;;;;;;16.77;9.98;;;;;;;17.18;64.33;100020.81;1754654;82;21165;-53
2021/05/02 04:22:14;;;;;;;14.98;9.68;;;;;;;17.19;64.33;100013.23;1756199;82;21269;-53
2021/05/02 04:24:44;;;;;;;13.62;9.65;;;;;;;17.23;64.36;99993.52;1755759;80;21614;-63
2021/05/02 04:27:13;;;;;;;14.38;10.23;;;;;;;17.26;64.28;99985.88;1756069;82;21127;-53
2021/05/02 04:29:42;;;;;;;15.63;9.58;;;;;;;17.28;64.27;99980.88;1758616;81;21157;-53
2021/05/02 04:32:09;;;;;;;13.70;9.75;;;;;;;17.44;63.88;99971.70;1761755;81;21546;-63
2021/05/02 04:34:37;;;;;;;11.60;8.93;;;;;;;17.51;63.67;99970.97;1759181;81;21797;-52
2021/05/02 04:37:05;;;;;;;15.38;9.48;;;;;;;17.54;63.56;99974.33;1761627;81;21111;-64
2021/05/02 04:39:34;;;;;;;16.30;9.75;;;;;;;17.54;63.47;99970.82;1761296;81;21151;-53
2021/05/02 04:42:02;;;;;;;14.20;9.33;;;;;;;17.49;63.55;99971.50;1708570;83;21122;-52
2021/05/02 04:44:29;;;;;;;17.42;9.75;;;;;;;17.46;63.67;99992.93;1703441;83;21569;-53
2021/05/02 04:46:57;;;;;;;14.00;9.43;;;;;;;17.43;63.73;99983.31;1725348;83;21154;-53
2021/05/02 04:49:26;;;;;;;14.18;9.88;;;;;;;17.45;63.73;99984.55;1723710;83;21140;-64
2021/05/02 04:51:54;;;;;;;15.00;9.75;;;;;;;17.47;63.82;99991.52;1724444;83;21581;-53
2021/05/02 04:54:21;;;;;;;11.93;8.80;;;;;;;17.48;63.81;99995.90;1703859;84;21131;-53
2021/05/02 04:56:49;;;;;;;13.60;9.93;;;;;;;17.49;63.76;100005.61;1704659;84;21726;-53
2021/05/02 04:59:17;;;;;;;12.82;9.53;;;;;;;17.13;64.91;100017.02;1714801;83;21163;-53
2021/05/02 05:01:46;;;;;;;11.97;8.80;;;;;;;17.34;64.46;100009.85;1720924;83;21177;-64
2021/05/02 05:04:14;;;;;;;14.13;9.35;;;;;;;17.44;64.02;100007.61;1725285;83;21350;-54
2021/05/02 05:06:42;;;;;;;12.47;8.95;;;;;;;17.43;63.80;100011.24;1725358;82;21135;-63
2021/05/02 05:09:10;;;;;;;11.63;9.53;;;;;;;17.49;63.75;100003.43;1725609;83;21170;-63
2021/05/02 05:11:38;;;;;;;14.65;8.95;;;;;;;17.51;63.53;100003.73;1725119;82;21159;-63
2021/05/02 05:14:06;;;;;;;12.85;9.05;;;;;;;17.51;63.25;99999.75;1725129;83;21203;-52
2021/05/02 05:16:34;;;;;;;11.70;8.95;;;;;;;17.54;63.02;99988.11;1725228;82;21663;-52
2021/05/02 05:19:03;;;;;;;13.85;9.35;;;;;;;17.51;63.23;99982.94;1725111;83;21181;-62
2021/05/02 05:21:31;;;;;;;14.28;9.13;;;;;;;17.56;63.34;99980.05;1725178;83;21292;-62
2021/05/02 05:24:00;;;;;;;11.78;9.00;;;;;;;17.57;63.28;99971.13;1725559;83;21204;-62
2021/05/02 05:26:28;;;;;;;18.50;9.83;;;;;;;17.53;63.52;99977.08;1725877;83;21198;-52
2021/05/02 05:28:56;;;;;;;16.87;10.00;;;;;;;17.58;63.50;99972.40;1723837;83;21140;-52
2021/05/02 05:31:25;;;;;;;17.52;10.90;;;;;;;17.65;63.44;99969.84;1705782;84;21152;-52
2021/05/02 05:33:52;;;;;;;13.98;9.63;;;;;;;17.66;63.42;99975.53;1710113;83;21547;-63
2021/05/02 05:36:22;;;;;;;15.68;10.58;;;;;;;17.70;63.07;99970.94;1755635;80;21647;-63
2021/05/02 05:38:50;;;;;;;15.53;10.18;;;;;;;17.70;63.39;99965.61;1746220;82;21590;-62
2021/05/02 05:41:18;;;;;;;16.20;10.70;;;;;;;17.76;63.33;99961.33;1756279;80;21614;-63
2021/05/02 05:43:46;;;;;;;15.43;10.40;;;;;;;17.84;63.16;99959.61;1756178;82;21466;-51
2021/05/02 05:46:14;;;;;;;14.83;9.30;;;;;;;17.83;63.16;99957.88;1755261;82;21722;-53
2021/05/02 05:48:42;;;;;;;14.85;9.58;;;;;;;17.89;62.91;99956.70;1755835;82;21166;-63
2021/05/02 05:51:10;;;;;;;14.73;9.53;;;;;;;17.94;62.75;99956.89;1756180;82;21163;-63
2021/05/02 05:53:38;;;;;;;12.73;9.75;;;;;;;17.94;62.77;99956.89;1756302;82;21131;-52
2021/05/02 05:56:06;;;;;;;13.95;8.70;;;;;;;18.04;62.57;99955.14;1736211;80;21465;-52
2021/05/02 05:58:34;;;;;;;13.45;9.20;;;;;;;18.04;62.47;99953.80;1741585;82;21150;-52
2021/05/02 06:01:02;;;;;;;14.95;9.73;;;;;;;18.07;62.30;99954.98;1756045;80;21132;-52
2021/05/02 06:03:30;;;;;;;12.00;9.18;;;;;;;18.21;62.05;99947.14;1756184;82;21530;-63
2021/05/02 06:05:58;;;;;;;14.23;9.45;;;;;;;18.22;61.74;99950.19;1755505;80;21164;-64
2021/05/02 06:08:26;;;;;;;15.80;9.63;;;;;;;18.30;61.66;99936.95;1756079;82;21187;-62
2021/05/02 06:10:54;;;;;;;15.30;9.00;;;;;;;18.40;61.54;99936.39;1756311;80;21224;-52
2021/05/02 06:13:23;;;;;;;12.78;8.60;;;;;;;18.47;61.29;99945.40;1755912;82;21142;-64
2021/05/02 06:15:51;;;;;;;13.88;9.18;;;;;;;18.58;61.12;99933.23;1756287;82;21204;-63
2021/05/02 06:18:18;;;;;;;16.45;9.10;;;;;;;18.62;60.78;99935.28;1755947;82;21175;-63
2021/05/02 06:20:46;;;;;;;16.60;9.65;;;;;;;18.58;60.40;99923.90;1756283;82;21127;-52
2021/05/02 06:23:14;;;;;;;13.55;8.73;;;;;;;18.64;60.49;99931.19;1754529;82;21570;-63
2021/05/02 06:25:42;;;;;;;12.73;9.00;;;;;;;18.66;60.31;99932.84;1755969;82;21148;-63
2021/05/02 06:28:10;;;;;;;12.43;8.43;;;;;;;18.64;60.12;99930.73;1691396;85;21584;-53
2021/05/02 06:30:38;;;;;;;14.93;8.93;;;;;;;18.69;59.97;99939.34;1741377;81;21142;-52
2021/05/02 06:33:07;;;;;;;13.68;8.03;;;;;;;18.66;60.01;99943.95;1732401;81;21233;-53
2021/05/02 06:35:35;;;;;;;11.68;7.45;;;;;;;18.82;59.78;99932.87;1760329;80;21307;-52
2021/05/02 06:38:05;;;;;;;14.25;7.62;;;;;;;18.93;59.62;99935.44;1743970;81;21541;-52
2021/05/02 06:40:35;;;;;;;11.18;7.05;;;;;;;18.92;58.83;99942.56;1753307;81;21163;-52
2021/05/02 06:43:03;;;;;;;14.90;7.67;;;;;;;19.08;58.86;99939.95;1744215;81;21249;-53
2021/05/02 06:45:32;;;;;;;9.30;7.22;;;;;;;19.26;58.63;99931.40;1761699;81;21159;-58
2021/05/02 06:48:00;;;;;;;14.73;7.45;;;;;;;19.37;58.54;99931.28;1761654;81;21547;-53
2021/05/02 06:50:28;;;;;;;10.45;7.05;;;;;;;19.48;57.85;99938.21;1742372;81;21158;-62
2021/05/02 06:52:56;;;;;;;12.47;7.12;;;;;;;19.60;57.08;99934.85;1731559;83;21146;-53
2021/05/02 06:55:26;;;;;;;9.68;5.67;;;;;;;19.68;56.96;99933.06;1751713;80;21289;-53
2021/05/02 06:57:55;;;;;;;12.18;7.25;;;;;;;19.57;57.12;99920.34;1761685;81;21150;-62
2021/05/02 07:00:23;;;;;;;10.15;6.53;;;;;;;19.67;56.76;99921.12;1761304;80;21304;-62
2021/05/02 07:02:52;;;;;;;10.05;6.40;;;;;;;19.76;56.93;99924.61;1761583;81;21084;-62
2021/05/02 07:05:21;;;;;;;11.68;6.42;;;;;;;19.87;56.16;99938.69;1756761;80;21351;-62
2021/05/02 07:07:49;;;;;;;11.80;6.40;;;;;;;20.06;56.55;99942.02;1751845;81;21154;-62
2021/05/02 07:10:36;;;;;;;12.65;6.10;;;;;;;20.40;56.31;99924.91;1756160;80;21522;-62
2021/05/02 07:13:04;;;;;;;12.40;6.20;;;;;;;20.65;55.01;99917.13;1764802;81;21559;-62
2021/05/02 07:15:33;;;;;;;11.78;5.80;;;;;;;20.97;54.42;99921.91;1765597;80;21146;-62
2021/05/02 07:18:01;;;;;;;11.45;5.75;;;;;;;21.18;54.34;99915.20;1773765;80;21569;-62
2021/05/02 07:20:29;;;;;;;12.15;5.72;;;;;;;21.27;53.14;99920.90;1764498;80;21351;-62
2021/05/02 07:22:58;;;;;;;12.15;5.55;;;;;;;21.24;52.97;99921.48;1763955;81;21261;-62
2021/05/02 07:25:26;;;;;;;10.78;5.67;;;;;;;21.33;52.62;99924.52;1729852;80;21686;-63
2021/05/02 07:27:55;;;;;;;10.08;5.62;;;;;;;21.27;52.70;99918.22;1765679;80;21137;-63
2021/05/02 07:30:24;;;;;;;10.32;5.47;;;;;;;21.22;52.81;99919.88;1762234;80;21577;-62
2021/05/02 07:32:51;;;;;;;8.63;5.15;;;;;;;21.27;52.51;99923.58;1764718;81;21620;-53
2021/05/02 07:35:20;;;;;;;9.68;4.55;;;;;;;21.35;52.74;99921.27;1763534;80;21178;-62
2021/05/02 07:37:48;;;;;;;9.30;4.85;;;;;;;21.41;52.32;99918.70;1724034;83;21173;-53
2021/05/02 07:40:16;;;;;;;11.53;4.67;;;;;;;21.50;52.74;99915.39;1757712;82;21177;-63
2021/05/02 07:42:44;;;;;;;13.43;5.65;;;;;;;21.57;52.19;99917.20;1722485;82;21577;-53
2021/05/02 07:45:12;;;;;;;10.25;4.65;;;;;;;21.60;51.31;99920.52;1723874;83;21149;-62
2021/05/02 07:47:40;;;;;;;12.33;5.62;;;;;;;21.55;52.09;99914.61;1701352;84;21633;-62
2021/05/02 07:50:11;;;;;;;11.73;5.30;;;;;;;21.56;52.43;99898.93;1748350;81;21319;-53
2021/05/02 07:52:41;;;;;;;8.63;4.65;;;;;;;21.67;51.88;99899.58;1760521;81;21169;-62
2021/05/02 07:55:11;;;;;;;12.50;5.03;;;;;;;21.77;51.52;99896.67;1730684;82;21597;-63
2021/05/02 07:57:39;;;;;;;;;;;;;;;21.74;51.16;99900.05;1763238;81;21531;-63
2021/05/02 08:00:08;;;;;;;12.88;5.25;;;;;;;21.69;51.47;99893.64;1759549;81;20173;-54
2021/05/02 08:02:41;;;;;;;10.53;5.10;;;;;;;21.87;51.64;99891.55;1759781;80;21157;-54
2021/05/02 08:05:10;;;;;;;12.43;5.17;;;;;;;22.06;51.23;99887.16;1766836;80;21652;-63
2021/05/02 08:07:38;;;;;;;13.32;5.40;;;;;;;22.28;52.13;99891.03;1761822;80;21176;-55
2021/05/02 08:10:09;;;;;;;11.80;5.28;;;;;;;22.66;51.74;99886.67;1737386;82;21172;-63
2021/05/02 08:12:37;;;;;;;11.25;5.05;;;;;;;22.99;50.27;99883.37;1733540;81;21266;-63
2021/05/02 08:15:06;;;;;;;9.40;5.22;;;;;;;23.20;49.76;99873.86;1726148;83;21122;-54
2021/05/02 08:17:35;;;;;;;11.45;5.10;;;;;;;23.26;48.68;99861.36;1689437;84;21165;-63
2021/05/02 08:20:08;;;;;;;10.87;5.20;;;;;;;23.24;48.49;99874.04;1734445;83;21195;-64
2021/05/02 08:22:36;;;;;;;10.00;4.80;;;;;;;23.26;48.63;99860.02;1732464;82;21589;-53
2021/05/02 08:25:06;;;;;;;8.53;4.62;;;;;;;23.36;47.96;99866.93;1705444;83;21673;-63
2021/05/02 08:27:33;;;;;;;9.90;5.00;;;;;;;23.19;48.12;99867.65;1733741;83;21162;-61
2021/05/02 08:30:01;;;;;;;10.98;5.05;;;;;;;23.20;47.55;99869.83;1734488;81;21604;-53
2021/05/02 08:32:29;;;;;;;9.35;6.05;;;;;;;23.05;48.64;99865.98;1731165;82;21162;-63
2021/05/02 08:34:57;;;;;;;16.77;5.55;;;;;;;23.26;48.87;99850.63;1704729;83;21181;-63
2021/05/02 08:37:25;;;;;;;11.22;5.28;;;;;;;23.31;48.15;99855.17;1704391;84;21653;-62
2021/05/02 08:39:53;;;;;;;9.33;5.42;;;;;;;23.27;48.22;99840.26;1728713;82;21194;-62
2021/05/02 08:42:21;;;;;;;9.85;5.15;;;;;;;23.20;48.12;99841.17;1721201;82;21647;-63
2021/05/02 08:44:50;;;;;;;10.93;5.50;;;;;;;23.23;47.88;99836.09;1718136;82;21644;-63
2021/05/02 08:47:19;;;;;;;9.97;5.57;;;;;;;23.06;48.03;99859.64;1722193;83;21158;-63
2021/05/02 08:49:47;;;;;;;11.88;5.78;;;;;;;23.10;48.48;99842.34;1723135;82;21562;-62
2021/05/02 08:52:15;;;;;;;12.45;5.37;;;;;;;23.12;48.15;99839.07;1661370;86;21638;-62
2021/05/02 08:54:43;;;;;;;12.00;5.55;;;;;;;23.16;48.30;99831.63;1714917;83;21700;-63
2021/05/02 08:57:10;;;;;;;11.18;6.22;;;;;;;23.14;48.59;99832.23;1682073;85;21588;-54
2021/05/02 08:59:40;;;;;;;15.58;6.70;;;;;;;23.17;48.14;99830.66;1714295;83;21158;-53
2021/05/02 09:02:12;;;;;;;13.48;5.87;;;;;;;23.22;48.85;99815.55;1717929;83;21182;-53
2021/05/02 09:04:47;;;;;;;14.83;6.03;;;;;;;23.38;48.49;99823.38;1685412;83;21166;-53
2021/05/02 09:07:15;;;;;;;13.58;5.85;;;;;;;23.29;48.41;99820.86;1718292;83;21775;-53
2021/05/02 09:09:44;;;;;;;12.93;6.42;;;;;;;23.46;48.32;99811.07;1730822;83;21639;-53
2021/05/02 09:12:24;;;;;;;11.78;5.80;;;;;;;23.49;47.96;99808.63;1734071;80;21142;-53
2021/05/02 09:14:53;;;;;;;10.65;5.20;;;;;;;23.54;48.43;99821.22;1767208;80;21151;-65
2021/05/02 09:19:57;;;;;;;15.28;6.87;;;;;;;24.15;46.84;99809.91;1796890;77;27978;-65
2021/05/02 09:22:24;;;;;;;9.68;5.67;;;;;;;24.09;46.68;99816.64;1743053;81;21131;-65
2021/05/02 09:25:06;;;;;;;14.90;6.15;;;;;;;24.13;46.06;99817.24;1731771;81;21130;-65
2021/05/02 09:27:33;;;;;;;;;;;;;;;24.10;46.25;99818.83;1734446;83;21178;-64
2021/05/02 09:30:16;;;;;;;10.60;5.45;;;;;;;24.04;46.79;99808.08;1743965;80;20150;-53
2021/05/02 09:32:45;;;;;;;14.10;6.20;;;;;;;24.10;45.79;99803.57;1731670;83;21182;-55
2021/05/02 09:35:33;;;;;;;12.95;6.92;;;;;;;24.03;45.66;99812.61;1732022;81;21195;-56
2021/05/02 09:38:15;;;;;;;13.43;5.70;;;;;;;24.06;45.89;99811.50;1742010;81;21107;-54
2021/05/02 09:40:56;;;;;;;14.25;7.03;;;;;;;23.92;46.20;99789.71;1755655;80;21166;-54
2021/05/02 09:43:48;;;;;;;13.45;6.12;;;;;;;24.07;46.20;99778.27;1761822;81;21150;-55
2021/05/02 09:46:32;;;;;;;16.10;6.75;;;;;;;23.93;46.35;99775.30;1762092;80;21578;-65
2021/05/02 09:49:13;;;;;;;10.25;5.92;;;;;;;24.04;46.55;99769.98;1755236;81;21159;-54
2021/05/02 09:51:52;;;;;;;13.20;6.33;;;;;;;24.15;46.29;99773.63;1762057;80;21627;-66
2021/05/02 09:54:21;;;;;;;10.93;6.00;;;;;;;24.32;45.75;99770.46;1762098;81;21131;-64
2021/05/02 09:56:54;;;;;;;13.45;6.37;;;;;;;24.30;45.60;99775.10;1761761;80;21131;-65
2021/05/02 09:59:29;;;;;;;12.98;5.80;;;;;;;24.25;45.64;99771.92;1755735;81;21146;-55
2021/05/02 10:02:14;;;;;;;10.15;5.28;;;;;;;24.22;45.49;99765.95;1762089;81;21154;-65
2021/05/02 10:04:55;;;;;;;12.73;6.92;;;;;;;24.24;45.54;99756.77;1728282;81;21166;-66
2021/05/02 10:07:28;;;;;;;11.75;5.33;;;;;;;24.29;45.25;99756.39;1738218;81;21562;-65
2021/05/02 10:09:57;;;;;;;10.58;5.42;;;;;;;24.13;45.35;99740.16;1731822;81;21281;-54
2021/05/02 10:12:25;;;;;;;9.85;5.65;;;;;;;23.93;46.10;99732.77;1753171;81;21131;-65
2021/05/02 10:14:55;;;;;;;13.48;7.08;;;;;;;23.94;46.56;99735.36;1761770;81;21123;-54
2021/05/02 10:17:23;;;;;;;13.88;5.97;;;;;;;23.93;46.48;99741.70;1755705;81;21570;-65
2021/05/02 10:19:50;;;;;;;12.82;6.25;;;;;;;23.96;46.24;99748.19;1762138;80;21206;-55
2021/05/02 10:22:18;;;;;;;13.62;6.67;;;;;;;23.85;46.75;99744.13;1762071;81;21562;-66
2021/05/02 10:24:46;;;;;;;12.03;5.90;;;;;;;23.90;46.60;99733.38;1759449;81;21161;-65
2021/05/02 10:27:15;;;;;;;16.00;6.67;;;;;;;23.97;46.77;99725.70;1734950;81;21573;-65
2021/05/02 10:29:49;;;;;;;15.38;6.95;;;;;;;24.04;46.79;99726.97;1733631;81;21154;-54
2021/05/02 10:32:23;;;;;;;10.55;6.03;;;;;;;24.12;46.55;99731.73;1769620;81;21285;-66
2021/05/02 10:34:56;;;;;;;15.83;7.25;;;;;;;24.22;46.39;99731.00;1755304;80;21247;-54
2021/05/02 10:37:27;;;;;;;14.38;6.50;;;;;;;24.28;46.74;99724.63;1741258;81;21581;-66
2021/05/02 10:40:13;;;;;;;13.60;6.70;;;;;;;24.29;46.56;99724.13;1761565;80;21155;-54
2021/05/02 10:42:52;;;;;;;12.65;6.58;;;;;;;24.44;46.68;99723.40;1761599;81;21558;-64
2021/05/02 10:45:43;;;;;;;15.68;6.55;;;;;;;24.59;46.16;99730.20;1756412;80;21166;-53
2021/05/02 10:48:17;;;;;;;;;;;;;;;24.50;45.75;99723.75;1764311;81;21590;-54
2021/05/02 10:50:46;;;;;;;13.40;6.65;;;;;;;24.54;45.55;99714.92;1733411;81;20146;-58
2021/05/02 10:53:21;;;;;;;14.50;6.15;;;;;;;24.60;45.49;99701.48;1742759;81;21538;-65
2021/05/02 10:56:02;;;;;;;12.88;6.08;;;;;;;24.64;44.90;99705.13;1761441;80;21184;-54
2021/05/02 10:58:34;;;;;;;13.50;6.45;;;;;;;24.76;45.73;99713.20;1761817;81;21697;-54
2021/05/02 11:01:10;;;;;;;15.60;6.05;;;;;;;24.99;45.81;99705.03;1760840;81;21203;-54
2021/05/02 11:03:51;;;;;;;13.70;6.25;;;;;;;25.28;44.70;99705.27;1736402;81;21134;-54
2021/05/02 11:06:39;;;;;;;;;;;;;;;25.30;43.89;99708.69;1733922;81;21154;-65
2021/05/02 11:09:12;;;;;;;15.18;7.45;;;;;;;25.31;44.25;99709.56;1754546;81;20152;-54
2021/05/02 11:11:42;;;;;;;13.93;6.05;;;;;;;25.38;44.76;99704.02;1754986;81;21127;-65
2021/05/02 11:14:26;;;;;;;13.13;6.22;;;;;;;25.46;43.63;99703.38;1761476;81;21167;-53
2021/05/02 11:17:05;;;;;;;13.22;6.92;;;;;;;25.52;44.67;99696.13;1761427;80;21130;-63
2021/05/02 11:19:39;;;;;;;15.13;6.37;;;;;;;25.74;43.94;99694.24;1758327;81;21130;-54
2021/05/02 11:22:08;;;;;;;15.10;7.03;;;;;;;25.97;43.09;99710.62;1759423;81;21562;-65
2021/05/02 11:24:46;;;;;;;12.28;6.15;;;;;;;25.99;42.35;99706.42;1761687;80;21610;-54
2021/05/02 11:29:57;;;;;;;17.10;6.67;;;;;;;26.47;42.73;99694.14;1754877;80;21127;-65
2021/05/02 11:32:38;;;;;;;12.68;5.62;;;;;;;26.72;41.77;99700.83;1761656;81;21135;-54
2021/05/02 11:35:16;;;;;;;13.15;5.83;;;;;;;26.92;40.91;99695.48;1761566;80;21148;-54
2021/05/02 11:37:54;;;;;;;13.18;6.40;;;;;;;26.95;41.13;99693.86;1760149;81;21139;-65
2021/05/02 11:40:33;;;;;;;15.03;6.92;;;;;;;27.01;40.40;99691.08;1759003;80;21131;-65
2021/05/02 11:43:16;;;;;;;14.70;6.83;;;;;;;26.91;40.72;99677.58;1761675;81;21594;-54
2021/05/02 11:45:58;;;;;;;13.53;5.37;;;;;;;26.97;41.03;99675.67;1761651;80;21151;-65